home support login
SAVED Flights LIVE Flights

2011-08-07 - CSK3 instrument lesson by JPFly

 
Description

071600Z 21006KT 25SM BKN025 BKN220 26/20 A2967 RMK CU5CI1
TCU ASOCTD SLP046=

Maximum Speed: 208 km/h
Maximum Altitude: 539 m
Total Time: 1 hr, 3 min, 19 sec
Total Distance: 87.9 km
Flight Date:
 
map controls

arrow Rotation, and 3D manoeuvring.
Alternatively, hold 'shift' when you click + drag the map

arrow Move forward/back/left/right.
Alternatively, click + drag the map

arrow Zoom in / out.
Alternatively, scroll your mouse wheel

Colour Flight path based on
Time
Speed
Altitude
START
END
Google Map Legend
Flight Detail
Normal (max. 1000 points)
High (max. 4000 points)
Comments
 
You need to login to post.
No account? Register for free now.


 
You need to login to post.
No account? Register for free now.